Time;durP1;ratioP1;P1;durP2;ratioP2;P2;SDS_P1;SDS_P2;PMS_P1;PMS_P2;Temp;Humidity;BMP_temperature;BMP_pressure;BME280_temperature;BME280_humidity;BME280_pressure;Samples;Min_cycle;Max_cycle;Signal;HPM_P1;HPM_P2
2022/03/17 00:00:53;;;;;;;26.38;10.98;;;7.60;99.90;;;;;;10263551;28;20058;-57
2022/03/17 00:05:55;;;;;;;27.30;10.13;;;7.60;99.90;;;;;;10265978;28;20154;-58
2022/03/17 00:10:57;;;;;;;29.98;11.50;;;7.60;99.90;;;;;;10264043;28;20158;-59
2022/03/17 00:15:59;;;;;;;22.65;10.85;;;7.60;99.90;;;;;;10279611;28;20047;-58
2022/03/17 00:21:02;;;;;;;24.10;10.02;;;7.60;99.90;;;;;;10259989;28;20049;-57
2022/03/17 00:26:04;;;;;;;28.23;11.18;;;7.60;99.90;;;;;;10258716;28;20113;-56
2022/03/17 00:31:06;;;;;;;23.67;10.77;;;7.60;99.90;;;;;;10271408;28;20070;-56
2022/03/17 00:36:08;;;;;;;21.63;9.48;;;7.70;99.90;;;;;;10277340;28;20401;-56
2022/03/17 00:41:09;;;;;;;21.42;10.15;;;7.70;99.90;;;;;;10262868;28;20497;-56
2022/03/17 00:46:11;;;;;;;19.60;10.35;;;7.70;99.90;;;;;;10263959;28;20055;-57
2022/03/17 00:51:13;;;;;;;22.52;11.13;;;7.70;99.90;;;;;;10260885;28;20054;-57
2022/03/17 00:56:14;;;;;;;22.48;11.45;;;7.70;99.90;;;;;;10265101;28;20047;-57
2022/03/17 01:01:16;;;;;;;26.30;11.00;;;7.70;99.90;;;;;;10261511;28;20529;-58
2022/03/17 01:06:19;;;;;;;24.70;11.82;;;7.80;99.90;;;;;;10260794;28;20051;-60
2022/03/17 01:11:20;;;;;;;25.27;11.07;;;7.80;99.90;;;;;;10261981;28;20073;-59
2022/03/17 01:16:22;;;;;;;26.58;13.23;;;7.80;99.90;;;;;;10263395;28;20066;-58
2022/03/17 01:21:24;;;;;;;30.98;14.02;;;7.90;99.90;;;;;;10276477;28;20055;-57
2022/03/17 01:26:26;;;;;;;28.98;14.00;;;8.00;99.90;;;;;;10260764;28;20050;-57
2022/03/17 01:31:29;;;;;;;30.15;14.45;;;8.10;99.90;;;;;;10257953;28;20063;-57
2022/03/17 01:36:31;;;;;;;27.85;13.25;;;8.20;99.90;;;;;;10261549;28;20637;-57
2022/03/17 01:41:32;;;;;;;32.75;14.82;;;8.30;99.90;;;;;;10262435;28;20086;-57
2022/03/17 01:47:26;;;;;;;27.48;13.82;;;8.30;99.90;;;;;;10251970;28;20050;-57
2022/03/17 01:51:56;;;;;;;33.92;13.23;;;8.40;99.90;;;;;;10251272;28;20517;-58
2022/03/17 01:57:01;;;;;;;26.88;14.05;;;8.50;99.90;;;;;;10260318;28;20160;-58
2022/03/17 02:02:07;;;;;;;30.42;14.30;;;8.50;99.90;;;;;;10258111;28;20054;-57
2022/03/17 02:07:11;;;;;;;32.85;14.30;;;8.50;99.90;;;;;;10258728;28;20083;-57
2022/03/17 02:17:39;;;;;;;29.90;14.43;;;8.70;99.90;;;;;;10255022;28;20050;-58
2022/03/17 02:22:47;;;;;;;28.27;14.07;;;8.80;98.90;;;;;;10264705;28;20129;-57
2022/03/17 02:27:49;;;;;;;27.73;13.65;;;8.80;98.00;;;;;;10259382;28;20090;-57
2022/03/17 02:33:03;;;;;;;26.83;12.82;;;8.80;98.10;;;;;;10261467;28;20552;-57
2022/03/17 02:38:06;;;;;;;28.67;14.50;;;8.80;98.00;;;;;;10259434;28;20136;-56
2022/03/17 02:43:09;;;;;;;31.40;15.05;;;8.80;98.40;;;;;;10268737;28;20588;-57
2022/03/17 02:48:11;;;;;;;29.52;13.40;;;8.80;98.00;;;;;;10269408;28;20051;-57
2022/03/17 02:53:15;;;;;;;27.95;14.57;;;8.80;98.60;;;;;;10269719;28;20055;-57
2022/03/17 02:58:16;;;;;;;26.80;14.00;;;8.80;99.90;;;;;;10270012;28;20113;-56
2022/03/17 03:03:18;;;;;;;28.77;14.75;;;8.70;99.90;;;;;;10268196;28;20086;-56
2022/03/17 03:08:21;;;;;;;27.92;13.73;;;8.70;99.90;;;;;;10263725;28;20058;-55
2022/03/17 03:13:23;;;;;;;31.20;15.15;;;8.60;99.90;;;;;;10264090;28;20086;-56
2022/03/17 03:18:25;;;;;;;29.00;14.43;;;8.50;99.90;;;;;;10266672;28;20074;-56
2022/03/17 03:23:26;;;;;;;31.98;13.98;;;8.50;99.90;;;;;;10268597;28;20181;-58
2022/03/17 03:28:28;;;;;;;25.83;13.63;;;8.50;99.90;;;;;;10268785;28;20070;-57
2022/03/17 03:33:29;;;;;;;28.90;14.88;;;8.50;99.90;;;;;;10266845;28;20043;-57
2022/03/17 03:38:31;;;;;;;30.85;14.75;;;8.60;99.60;;;;;;10269162;28;20093;-57
2022/03/17 03:43:33;;;;;;;28.98;15.55;;;8.60;99.90;;;;;;10258343;28;20649;-57
2022/03/17 03:48:35;;;;;;;29.23;15.20;;;8.60;99.90;;;;;;10260806;28;20120;-57
2022/03/17 03:58:57;;;;;;;34.47;15.35;;;8.60;98.60;;;;;;10263786;28;20078;-57
2022/03/17 04:04:01;;;;;;;27.85;14.23;;;8.70;97.20;;;;;;10271524;28;20043;-56
2022/03/17 04:09:03;;;;;;;27.67;13.90;;;8.60;99.20;;;;;;10245246;28;20490;-57
2022/03/17 04:14:05;;;;;;;30.52;14.52;;;8.60;99.90;;;;;;10265212;28;20445;-57
2022/03/17 04:19:09;;;;;;;27.38;13.77;;;8.60;99.00;;;;;;10265290;28;20086;-59
2022/03/17 04:24:11;;;;;;;30.30;14.38;;;8.50;99.90;;;;;;10265904;28;20062;-57
2022/03/17 04:29:14;;;;;;;31.27;14.25;;;8.50;99.90;;;;;;10263885;28;20081;-57
2022/03/17 04:34:16;;;;;;;30.23;14.82;;;8.50;99.90;;;;;;10260366;28;20133;-59
2022/03/17 04:39:18;;;;;;;28.58;13.52;;;8.50;99.90;;;;;;10259295;28;20460;-59
2022/03/17 04:44:20;;;;;;;30.02;14.70;;;8.50;99.10;;;;;;10264569;28;20101;-59
2022/03/17 04:49:21;;;;;;;27.02;14.18;;;8.50;98.30;;;;;;10264475;28;20429;-58
2022/03/17 04:54:23;;;;;;;30.98;14.68;;;8.60;97.00;;;;;;10265589;28;21140;-57
2022/03/17 04:59:24;;;;;;;26.70;12.98;;;8.60;94.20;;;;;;10264715;28;20109;-57
2022/03/17 05:04:26;;;;;;;25.77;14.25;;;8.70;93.60;;;;;;10260306;28;20058;-57
2022/03/17 05:09:28;;;;;;;24.35;12.32;;;8.70;92.50;;;;;;10255640;28;20375;-57
2022/03/17 05:14:29;;;;;;;29.63;13.00;;;8.80;91.30;;;;;;10262707;28;20073;-59
2022/03/17 05:19:55;;;;;;;29.67;14.65;;;8.70;92.20;;;;;;10255688;28;20126;-56
2022/03/17 05:25:20;;;;;;;29.67;13.85;;;8.80;91.00;;;;;;10265924;28;20073;-58
2022/03/17 05:30:46;;;;;;;29.63;13.52;;;8.80;91.70;;;;;;10263203;28;20069;-62
2022/03/17 05:36:12;;;;;;;28.08;13.75;;;8.80;92.20;;;;;;10261164;28;20042;-62
2022/03/17 05:41:38;;;;;;;27.13;13.00;;;8.80;91.50;;;;;;10258974;28;20049;-62
2022/03/17 05:47:04;;;;;;;26.13;13.57;;;8.80;91.50;;;;;;10258897;28;20734;-61
2022/03/17 05:52:07;;;;;;;27.48;14.38;;;8.80;91.90;;;;;;10262119;28;20050;-62
2022/03/17 05:57:10;;;;;;;29.80;14.63;;;8.80;92.40;;;;;;10264315;28;20046;-62
2022/03/17 06:02:12;;;;;;;31.30;15.88;;;8.80;91.90;;;;;;10268484;28;20051;-62
2022/03/17 06:07:18;;;;;;;29.02;13.82;;;8.80;93.70;;;;;;10268594;28;20062;-62
2022/03/17 06:12:19;;;;;;;30.65;14.50;;;8.80;92.50;;;;;;10268445;28;20141;-62
2022/03/17 06:17:21;;;;;;;31.77;15.40;;;8.80;92.30;;;;;;10247957;28;20055;-62
2022/03/17 06:22:23;;;;;;;29.08;13.63;;;8.80;93.10;;;;;;10271016;28;20076;-64
2022/03/17 06:27:26;;;;;;;30.73;13.60;;;8.90;91.80;;;;;;10261684;28;20128;-61
2022/03/17 06:32:28;;;;;;;27.92;13.88;;;8.90;91.90;;;;;;10268005;28;20540;-62
2022/03/17 06:37:29;;;;;;;31.98;14.13;;;9.00;91.00;;;;;;10260075;28;20049;-60
2022/03/17 06:42:31;;;;;;;28.55;14.00;;;9.00;90.20;;;;;;10264496;28;20493;-61
2022/03/17 06:47:33;;;;;;;30.65;13.65;;;9.10;90.10;;;;;;10267186;28;20493;-60
2022/03/17 06:52:36;;;;;;;32.78;13.10;;;9.10;88.10;;;;;;10263811;28;20047;-60
2022/03/17 06:57:38;;;;;;;32.03;14.25;;;9.20;90.00;;;;;;10260279;28;20474;-62
2022/03/17 07:02:39;;;;;;;28.00;14.13;;;9.30;88.70;;;;;;10267185;28;20541;-62
2022/03/17 07:07:43;;;;;;;26.90;13.95;;;9.30;90.20;;;;;;10267474;28;20535;-62
2022/03/17 07:12:47;;;;;;;27.48;13.10;;;9.40;89.70;;;;;;10265948;28;20078;-62
2022/03/17 07:17:48;;;;;;;27.77;14.40;;;9.50;86.10;;;;;;10266528;28;20062;-61
2022/03/17 07:22:51;;;;;;;28.02;14.25;;;9.50;88.10;;;;;;10266466;28;20050;-61
2022/03/17 07:27:52;;;;;;;29.70;14.82;;;9.60;86.70;;;;;;10256582;28;20054;-62
2022/03/17 07:32:55;;;;;;;32.35;14.38;;;9.70;85.50;;;;;;10256600;28;20739;-61
2022/03/17 07:37:58;;;;;;;29.38;13.60;;;9.80;87.60;;;;;;10253081;28;20698;-61
2022/03/17 07:43:00;;;;;;;31.33;14.60;;;10.00;88.70;;;;;;10261934;28;20059;-61
2022/03/17 07:48:05;;;;;;;27.60;13.98;;;10.10;90.00;;;;;;10264094;28;20054;-61
2022/03/17 07:53:06;;;;;;;28.20;14.57;;;10.20;85.40;;;;;;10259753;28;20055;-62
2022/03/17 07:58:10;;;;;;;28.02;14.38;;;10.30;85.60;;;;;;10263894;28;20685;-61
2022/03/17 08:03:12;;;;;;;28.40;14.95;;;10.40;86.50;;;;;;10278328;28;20441;-61
2022/03/17 08:08:15;;;;;;;29.17;14.30;;;10.40;83.80;;;;;;10259451;28;20051;-62
2022/03/17 08:13:16;;;;;;;28.52;14.50;;;10.50;83.20;;;;;;10263397;28;20078;-62
2022/03/17 08:18:18;;;;;;;27.88;13.30;;;10.60;81.90;;;;;;10262239;28;20083;-61
2022/03/17 08:23:21;;;;;;;26.98;14.88;;;10.70;81.90;;;;;;10261628;28;20105;-62
2022/03/17 08:28:24;;;;;;;30.30;14.52;;;10.80;81.60;;;;;;10258043;28;20062;-62
2022/03/17 08:33:26;;;;;;;27.42;14.75;;;10.90;81.50;;;;;;10253355;28;20493;-62
2022/03/17 08:38:28;;;;;;;26.10;14.20;;;10.90;79.90;;;;;;10254983;28;20133;-63
2022/03/17 08:43:29;;;;;;;28.60;14.40;;;11.00;80.20;;;;;;10280012;28;20164;-62
2022/03/17 08:53:52;;;;;;;27.08;13.93;;;11.10;76.80;;;;;;10256556;28;20054;-62
2022/03/17 08:58:53;;;;;;;26.35;14.05;;;11.30;78.50;;;;;;10258286;28;20046;-62
2022/03/17 09:03:55;;;;;;;29.50;14.60;;;11.50;77.70;;;;;;10249841;28;20090;-62
2022/03/17 09:08:56;;;;;;;29.85;14.45;;;11.40;74.00;;;;;;10261763;28;20051;-62
2022/03/17 09:13:58;;;;;;;28.15;14.88;;;11.60;77.20;;;;;;10260427;28;20074;-62
2022/03/17 09:19:01;;;;;;;31.67;14.18;;;11.70;75.60;;;;;;10260392;28;20114;-62
2022/03/17 09:24:03;;;;;;;28.08;15.23;;;11.80;75.50;;;;;;10260860;28;20062;-62
2022/03/17 09:29:05;;;;;;;27.48;13.95;;;11.80;74.60;;;;;;10260442;28;20054;-63
2022/03/17 09:34:07;;;;;;;26.27;14.18;;;11.80;74.40;;;;;;10259386;28;20090;-62
2022/03/17 09:44:53;;;;;;;26.35;13.95;;;11.50;73.80;;;;;;10170240;28;20551;-62
2022/03/17 09:49:56;;;;;;;30.45;14.13;;;11.50;74.90;;;;;;10243064;28;20055;-63
2022/03/17 09:54:59;;;;;;;32.28;15.65;;;11.50;76.10;;;;;;10257554;28;20059;-62
2022/03/17 10:00:00;;;;;;;29.58;13.93;;;11.50;76.30;;;;;;10254625;28;20054;-62
2022/03/17 10:05:03;;;;;;;30.52;15.55;;;11.60;75.50;;;;;;10262393;28;20059;-62
2022/03/17 10:10:05;;;;;;;31.08;15.27;;;11.70;75.70;;;;;;10251847;28;20426;-63
2022/03/17 10:15:18;;;;;;;31.80;15.60;;;11.70;75.40;;;;;;10262071;28;20059;-62
2022/03/17 10:20:22;;;;;;;26.63;14.80;;;11.80;76.40;;;;;;10262383;28;20105;-63
2022/03/17 10:25:27;;;;;;;29.10;15.32;;;11.70;72.70;;;;;;10258009;28;20059;-63
2022/03/17 10:30:35;;;;;;;28.95;15.48;;;11.80;75.60;;;;;;10259179;28;20058;-63
2022/03/17 10:35:38;;;;;;;30.58;14.93;;;11.80;75.80;;;;;;10326552;22;20074;-90
2022/03/17 10:40:42;;;;;;;28.48;15.32;;;11.80;76.20;;;;;;10210562;28;20584;-90
2022/03/17 10:45:45;;;;;;;27.27;14.57;;;11.80;76.10;;;;;;10259519;28;20428;-91
2022/03/17 10:50:48;;;;;;;33.60;14.85;;;11.80;76.20;;;;;;10240236;28;20054;-90
2022/03/17 10:55:50;;;;;;;30.75;15.18;;;11.80;76.20;;;;;;10304496;28;20054;-90
2022/03/17 11:00:56;;;;;;;32.60;15.55;;;11.80;76.60;;;;;;10297680;28;20042;-90
2022/03/17 11:06:09;;;;;;;;;;;;;;;;;;;;;
2022/03/17 11:11:23;;;;;;;28.85;15.85;;;11.80;78.60;;;;;;10291320;28;20499;-90
2022/03/17 11:16:43;;;;;;;30.13;16.58;;;11.60;80.10;;;;;;10220223;28;20145;-90
2022/03/17 11:21:49;;;;;;;33.28;15.60;;;11.70;83.60;;;;;;10237560;28;20057;-91
2022/03/17 11:27:09;;;;;;;26.38;15.07;;;11.50;80.50;;;;;;10305862;28;20038;-92
2022/03/17 11:32:31;;;;;;;;;;;11.30;84.60;;;;;;10190834;28;20083;-91
2022/03/17 11:37:50;;;;;;;26.55;13.60;;;11.30;90.20;;;;;;10190131;28;20347;-91
2022/03/17 11:43:07;;;;;;;28.75;12.77;;;11.10;91.80;;;;;;10167791;28;20603;-92
2022/03/17 11:48:11;;;;;;;19.27;9.85;;;10.80;99.90;;;;;;10154737;28;20086;-92
2022/03/17 11:53:17;;;;;;;25.58;11.13;;;10.40;99.90;;;;;;10226685;28;20443;-92
2022/03/17 11:58:37;;;;;;;24.70;9.53;;;10.20;99.90;;;;;;10196561;28;20042;-92
2022/03/17 12:03:52;;;;;;;20.38;9.38;;;10.10;99.90;;;;;;10260218;28;20037;-91
2022/03/17 12:09:11;;;;;;;20.10;8.10;;;10.00;99.90;;;;;;10297342;28;20054;-92
2022/03/17 12:14:26;;;;;;;20.08;7.00;;;9.90;99.90;;;;;;10211794;28;20091;-92
2022/03/17 12:20:32;;;;;;;13.30;5.85;;;9.90;99.90;;;;;;10059414;28;20082;-91
2022/03/17 12:26:06;;;;;;;15.52;5.60;;;9.90;99.90;;;;;;10237393;28;20093;-91
2022/03/17 12:31:17;;;;;;;14.65;5.38;;;9.80;99.90;;;;;;10230924;28;20050;-91
2022/03/17 12:36:22;;;;;;;11.60;5.47;;;9.70;99.90;;;;;;10184202;28;20546;-90
2022/03/17 12:41:30;;;;;;;14.55;4.97;;;9.70;99.90;;;;;;10227462;28;20042;-89
2022/03/17 12:46:38;;;;;;;11.50;4.80;;;9.70;99.90;;;;;;10231581;28;20037;-90
2022/03/17 12:51:43;;;;;;;7.60;4.03;;;9.70;99.90;;;;;;10261153;28;20049;-91
2022/03/17 12:57:16;;;;;;;9.65;4.57;;;9.60;99.90;;;;;;10138489;28;20053;-93
2022/03/17 13:02:20;;;;;;;12.20;5.38;;;9.50;99.90;;;;;;10178453;28;20114;-91
2022/03/17 13:07:50;;;;;;;10.85;5.63;;;9.50;99.90;;;;;;10047399;28;20055;-91
2022/03/17 13:19:09;;;;;;;11.50;5.35;;;9.50;99.90;;;;;;10048828;28;20042;-90
2022/03/17 13:24:27;;;;;;;10.13;5.32;;;9.50;99.90;;;;;;10099901;28;20047;-90
2022/03/17 13:29:50;;;;;;;12.15;6.40;;;9.40;99.90;;;;;;10106586;28;20047;-91
2022/03/17 13:35:33;;;;;;;12.10;5.38;;;9.50;99.90;;;;;;10028896;28;20048;-90
2022/03/17 13:40:41;;;;;;;13.35;5.03;;;9.50;99.90;;;;;;10168760;28;20054;-90
2022/03/17 13:46:44;;;;;;;;;;;;;;;;;;;;;
2022/03/17 13:51:52;;;;;;;12.63;4.93;;;9.40;99.90;;;;;;10321574;28;20486;-89
2022/03/17 13:57:17;;;;;;;13.23;5.93;;;9.40;99.90;;;;;;10285523;28;26198;-89
2022/03/17 14:02:22;;;;;;;12.35;4.70;;;9.40;99.90;;;;;;10246402;28;20074;-88
2022/03/17 14:07:28;;;;;;;12.40;5.22;;;9.50;99.90;;;;;;10260896;28;20110;-89
2022/03/17 14:12:30;;;;;;;7.95;4.07;;;9.60;99.90;;;;;;10322643;28;20057;-89
2022/03/17 14:17:32;;;;;;;10.23;4.43;;;9.60;99.90;;;;;;10321485;28;20045;-89
2022/03/17 14:27:56;;;;;;;11.35;3.85;;;9.70;99.90;;;;;;10324314;28;20082;-89
2022/03/17 14:32:57;;;;;;;8.68;3.58;;;9.80;99.90;;;;;;10273725;28;20077;-90
2022/03/17 14:38:06;;;;;;;9.10;3.97;;;9.80;99.90;;;;;;10284170;28;20137;-90
2022/03/17 14:43:09;;;;;;;7.50;3.08;;;9.90;99.90;;;;;;10275080;28;20587;-90
2022/03/17 14:48:11;;;;;;;7.68;3.88;;;9.90;98.80;;;;;;10279709;28;20472;-89
2022/03/17 14:53:13;;;;;;;9.05;4.13;;;10.00;99.40;;;;;;10316128;28;20533;-88
2022/03/17 14:58:15;;;;;;;12.80;4.28;;;9.90;96.40;;;;;;10256415;28;20042;-89
2022/03/17 15:03:17;;;;;;;8.30;3.70;;;10.00;96.40;;;;;;10247472;28;20047;-90
2022/03/17 15:08:27;;;;;;;7.63;4.00;;;9.90;95.60;;;;;;10289294;28;20073;-89
2022/03/17 15:13:32;;;;;;;6.43;3.53;;;9.90;93.80;;;;;;10302763;28;20053;-90
2022/03/17 15:18:36;;;;;;;6.32;3.22;;;9.90;93.20;;;;;;10181057;28;20082;-91
2022/03/17 15:23:38;;;;;;;8.40;2.95;;;10.00;93.60;;;;;;10190087;28;20428;-90
2022/03/17 15:34:04;;;;;;;5.47;2.97;;;9.90;92.30;;;;;;10189460;28;20052;-89
2022/03/17 15:39:07;;;;;;;5.47;2.72;;;9.90;92.50;;;;;;9933067;28;20499;-90
2022/03/17 15:44:09;;;;;;;7.15;3.47;;;9.90;92.20;;;;;;10306549;28;20058;-90
2022/03/17 15:49:12;;;;;;;5.18;2.50;;;9.80;92.10;;;;;;10308954;28;20062;-89
2022/03/17 15:54:16;;;;;;;5.70;2.78;;;9.80;92.00;;;;;;10318757;28;20049;-89
2022/03/17 15:59:20;;;;;;;5.85;2.85;;;9.80;92.90;;;;;;10279975;28;20056;-89
2022/03/17 16:04:23;;;;;;;10.27;2.90;;;9.80;93.20;;;;;;10313868;28;20053;-89
2022/03/17 16:14:50;;;;;;;5.25;2.70;;;9.80;91.20;;;;;;10269621;28;20054;-90
2022/03/17 16:19:54;;;;;;;5.60;2.47;;;9.80;91.40;;;;;;10259380;28;20111;-89
2022/03/17 16:24:57;;;;;;;3.30;2.20;;;9.80;90.80;;;;;;10308177;28;20069;-89
2022/03/17 16:30:00;;;;;;;4.68;1.88;;;9.70;90.50;;;;;;10329116;28;20049;-90
2022/03/17 16:35:15;;;;;;;4.50;2.28;;;9.70;91.00;;;;;;10255177;28;20062;-90
2022/03/17 16:40:17;;;;;;;5.10;2.37;;;9.70;90.80;;;;;;10180726;28;20049;-90
2022/03/17 16:45:19;;;;;;;4.40;2.10;;;9.60;90.90;;;;;;10279925;28;21503;-89
2022/03/17 16:50:23;;;;;;;3.63;2.40;;;9.60;90.70;;;;;;10314995;28;20523;-89
2022/03/17 16:55:26;;;;;;;4.65;2.00;;;9.60;90.60;;;;;;10313315;28;20053;-89
2022/03/17 17:00:29;;;;;;;4.72;2.22;;;9.60;90.00;;;;;;10310407;28;20416;-89
2022/03/17 17:05:32;;;;;;;3.30;1.23;;;9.50;89.30;;;;;;10327974;28;20054;-90
2022/03/17 17:10:34;;;;;;;5.03;1.67;;;9.50;90.00;;;;;;10312323;28;20042;-89
2022/03/17 17:15:37;;;;;;;5.30;1.75;;;9.40;90.40;;;;;;10300475;28;20064;-89
2022/03/17 17:20:40;;;;;;;7.45;2.00;;;9.40;91.50;;;;;;10318390;28;20096;-89
2022/03/17 17:31:24;;;;;;;5.10;2.63;;;9.20;94.10;;;;;;10024264;28;20078;-92
2022/03/17 17:36:37;;;;;;;4.63;2.27;;;9.10;95.10;;;;;;10160968;28;20134;-91
2022/03/17 17:41:44;;;;;;;4.70;2.65;;;9.10;95.30;;;;;;10157777;28;20115;-91
2022/03/17 17:46:47;;;;;;;5.30;2.70;;;9.00;96.40;;;;;;10125079;28;20428;-91
2022/03/17 17:51:53;;;;;;;4.97;2.75;;;9.00;98.60;;;;;;10203612;28;20206;-91
2022/03/17 18:10:56;;;;;;;4.43;2.05;;;9.00;96.90;;;;;;9811176;29;20049;-93
2022/03/17 18:17:29;;;;;;;3.78;2.00;;;9.00;97.20;;;;;;9743330;29;20056;-93
2022/03/17 18:24:24;;;;;;;;;;;;;;;;;;;;;
2022/03/17 18:31:29;;;;;;;;;;;;;;;;;;;;;
2022/03/17 18:36:54;;;;;;;6.57;2.75;;;8.70;99.90;;;;;;10310351;28;20361;-64
2022/03/17 18:41:56;;;;;;;4.93;2.38;;;8.60;99.90;;;;;;10320672;28;20366;-66
2022/03/17 18:46:58;;;;;;;7.40;2.05;;;8.60;99.80;;;;;;10309464;28;20042;-66
2022/03/17 18:51:59;;;;;;;2.60;1.05;;;8.60;98.10;;;;;;10306465;28;20042;-63
2022/03/17 18:57:01;;;;;;;5.38;0.70;;;8.60;96.10;;;;;;10308709;28;20045;-62
2022/03/17 19:02:04;;;;;;;4.13;0.63;;;8.60;93.30;;;;;;10247050;28;20086;-62
2022/03/17 19:07:06;;;;;;;1.52;0.45;;;8.60;91.50;;;;;;10304328;28;20038;-62
2022/03/17 19:12:09;;;;;;;4.75;0.55;;;8.60;90.70;;;;;;10322747;28;20058;-61
2022/03/17 19:17:11;;;;;;;2.17;0.40;;;8.50;88.50;;;;;;10286824;28;20242;-62
2022/03/17 19:22:31;;;;;;;3.80;0.40;;;8.50;88.10;;;;;;10311798;28;20061;-61
2022/03/17 19:27:33;;;;;;;3.05;0.30;;;8.50;86.70;;;;;;10300018;28;20038;-62
2022/03/17 19:32:34;;;;;;;2.92;0.47;;;8.40;86.00;;;;;;10302181;28;20070;-62
2022/03/17 19:37:36;;;;;;;2.22;0.60;;;8.40;86.50;;;;;;10322902;28;20586;-61
2022/03/17 19:42:38;;;;;;;3.60;0.40;;;8.30;86.80;;;;;;10296547;28;20050;-61
2022/03/17 19:47:40;;;;;;;6.40;0.45;;;8.30;86.30;;;;;;10302278;28;20062;-61
2022/03/17 19:52:47;;;;;;;7.35;1.20;;;8.30;85.70;;;;;;10282309;28;20141;-61
2022/03/17 19:57:49;;;;;;;3.53;0.43;;;8.20;86.10;;;;;;10290765;28;20404;-60
2022/03/17 20:02:50;;;;;;;3.63;0.95;;;8.10;85.60;;;;;;10277621;28;20448;-61
2022/03/17 20:07:53;;;;;;;4.40;0.60;;;8.10;86.40;;;;;;10288738;28;20053;-62
2022/03/17 20:18:15;;;;;;;4.78;0.47;;;8.10;85.80;;;;;;10278598;28;20058;-61
2022/03/17 20:26:09;;;;;;;1.63;0.82;;;8.10;85.20;;;;;;10430195;27;20417;-61
2022/03/17 20:31:14;;;;;;;3.33;0.40;;;8.10;86.30;;;;;;10419739;28;20061;-62
2022/03/17 20:36:20;;;;;;;3.80;1.08;;;8.00;86.50;;;;;;10442379;28;20060;-61
2022/03/17 20:41:27;;;;;;;3.08;1.10;;;7.80;86.60;;;;;;10438085;28;20064;-61
2022/03/17 20:46:29;;;;;;;4.70;0.90;;;7.80;87.30;;;;;;10443308;28;20103;-61
2022/03/17 20:51:31;;;;;;;4.15;0.40;;;7.60;88.50;;;;;;10438963;28;20138;-61
2022/03/17 20:56:32;;;;;;;5.45;0.60;;;7.50;88.90;;;;;;10447105;28;20052;-62
2022/03/17 21:01:36;;;;;;;3.92;0.75;;;7.50;89.20;;;;;;10433035;28;20718;-61
2022/03/17 21:06:38;;;;;;;4.82;0.60;;;7.40;89.70;;;;;;10432218;28;20120;-62
2022/03/17 21:11:40;;;;;;;2.50;0.55;;;7.30;90.00;;;;;;10433453;28;20373;-62
2022/03/17 21:16:42;;;;;;;6.95;0.90;;;7.30;90.20;;;;;;10436735;28;20094;-62
2022/03/17 21:21:44;;;;;;;4.20;0.40;;;7.20;90.40;;;;;;10433352;28;20048;-61
2022/03/17 21:26:46;;;;;;;4.40;0.60;;;7.20;90.50;;;;;;10421231;28;20142;-61
2022/03/17 21:31:48;;;;;;;1.48;0.60;;;7.10;91.00;;;;;;10433929;28;20052;-62
2022/03/17 21:36:51;;;;;;;4.88;0.50;;;7.10;90.60;;;;;;10415910;28;20069;-61
2022/03/17 21:41:53;;;;;;;3.33;0.50;;;7.10;90.70;;;;;;10405832;28;20122;-61
2022/03/17 21:46:54;;;;;;;5.97;0.50;;;7.00;90.70;;;;;;10404536;28;20060;-61
2022/03/17 21:51:56;;;;;;;3.45;0.70;;;7.00;90.50;;;;;;10407201;28;20041;-61
2022/03/17 21:56:58;;;;;;;9.05;0.70;;;7.00;91.00;;;;;;10409337;28;20053;-61
2022/03/17 22:02:00;;;;;;;5.53;0.50;;;6.90;91.10;;;;;;10408963;28;20452;-61
2022/03/17 22:07:05;;;;;;;1.73;0.50;;;6.90;91.10;;;;;;10402010;28;20053;-62
2022/03/17 22:12:26;;;;;;;3.65;0.52;;;6.90;91.20;;;;;;10403666;28;20188;-61
2022/03/17 22:17:29;;;;;;;11.77;0.77;;;6.90;91.80;;;;;;10408910;28;20128;-61
2022/03/17 22:22:31;;;;;;;5.00;0.63;;;6.90;91.50;;;;;;10406227;28;20132;-62
2022/03/17 22:27:37;;;;;;;4.88;0.55;;;6.90;91.80;;;;;;10397283;28;20345;-62
2022/03/17 22:32:39;;;;;;;4.03;0.50;;;6.80;91.90;;;;;;10402954;28;20137;-62
2022/03/17 22:37:41;;;;;;;2.30;0.40;;;6.80;92.40;;;;;;10407361;28;20103;-62
2022/03/17 22:42:42;;;;;;;4.53;0.50;;;6.80;92.70;;;;;;10405300;28;20403;-62
2022/03/17 22:47:44;;;;;;;4.65;1.10;;;6.80;93.10;;;;;;10398345;28;20553;-61
2022/03/17 22:52:46;;;;;;;5.93;0.80;;;6.80;93.10;;;;;;10402491;28;20053;-60
2022/03/17 22:57:48;;;;;;;5.65;1.23;;;6.70;93.70;;;;;;10402970;28;20037;-61
2022/03/17 23:02:49;;;;;;;4.78;0.50;;;6.70;94.00;;;;;;10402701;28;20077;-61
2022/03/17 23:07:54;;;;;;;4.95;0.73;;;6.70;94.60;;;;;;10405055;28;20059;-61
2022/03/17 23:12:56;;;;;;;4.75;0.90;;;6.70;95.30;;;;;;10401692;28;20056;-62
2022/03/17 23:17:58;;;;;;;7.63;0.73;;;6.60;95.40;;;;;;10402580;28;20128;-62
2022/03/17 23:23:00;;;;;;;3.60;0.70;;;6.60;95.90;;;;;;10400969;28;20056;-62
2022/03/17 23:28:03;;;;;;;9.73;0.90;;;6.60;96.40;;;;;;10406170;28;20114;-61
2022/03/17 23:33:05;;;;;;;7.85;0.80;;;6.60;96.90;;;;;;10407461;28;20048;-61
2022/03/17 23:38:06;;;;;;;4.82;0.60;;;6.60;97.70;;;;;;10412332;28;20063;-62
2022/03/17 23:43:09;;;;;;;6.43;0.88;;;6.50;98.20;;;;;;10404576;28;20453;-61
2022/03/17 23:48:11;;;;;;;9.20;0.80;;;6.50;98.50;;;;;;10402561;28;20051;-61
2022/03/17 23:53:13;;;;;;;4.95;1.08;;;6.40;99.30;;;;;;10398456;28;20049;-62
2022/03/17 23:58:15;;;;;;;2.05;0.50;;;6.40;99.40;;;;;;10392621;28;20049;-62
